createdAt,value
2023-03-30T00:07:52.561Z,89.40
2023-03-30T00:17:53.523Z,88.90
2023-03-30T00:27:52.522Z,88.50
2023-03-30T00:37:51.449Z,88.00
2023-03-30T00:47:50.508Z,87.00
2023-03-30T00:57:50.844Z,86.60
2023-03-30T01:07:50.052Z,86.40
2023-03-30T01:17:49.545Z,85.80
2023-03-30T01:27:49.453Z,85.30
2023-03-30T01:37:48.704Z,84.50
2023-03-30T01:47:47.593Z,84.00
2023-03-30T01:57:46.569Z,83.00
2023-03-30T02:07:45.848Z,82.70
2023-03-30T02:17:46.647Z,82.20
2023-03-30T02:27:48.279Z,82.20
2023-03-30T02:37:48.488Z,82.10
2023-03-30T02:47:47.765Z,81.60
2023-03-30T02:58:04.843Z,81.70
2023-03-30T03:08:03.891Z,81.90
2023-03-30T03:18:02.749Z,81.80
2023-03-30T03:28:03.551Z,81.90
2023-03-30T03:38:02.900Z,81.70
2023-03-30T03:48:12.235Z,81.50
2023-03-30T03:58:11.483Z,81.50
2023-03-30T04:08:11.698Z,81.50
2023-03-30T04:18:24.458Z,81.50
2023-03-30T04:28:35.141Z,81.60
2023-03-30T04:38:46.777Z,81.40
2023-03-30T04:48:53.256Z,81.10
2023-03-30T04:59:00.380Z,81.10
2023-03-30T05:09:08.289Z,80.80
2023-03-30T05:19:12.380Z,80.30
2023-03-30T05:29:22.426Z,80.10
2023-03-30T05:39:41.923Z,80.30
2023-03-30T05:49:42.667Z,80.30
2023-03-30T05:59:58.611Z,80.30
2023-03-30T06:10:01.122Z,80.40
2023-03-30T06:20:01.333Z,80.40
2023-03-30T06:30:01.374Z,80.30
2023-03-30T06:40:01.118Z,79.80
2023-03-30T06:50:12.976Z,80.00
2023-03-30T07:00:15.155Z,79.50
2023-03-30T07:10:14.964Z,78.60
2023-03-30T07:20:22.926Z,77.80
2023-03-30T07:30:25.649Z,78.10
2023-03-30T07:40:24.124Z,78.50
2023-03-30T07:50:26.408Z,79.10
2023-03-30T08:00:39.660Z,79.80
2023-03-30T08:10:38.825Z,80.30
2023-03-30T08:20:37.767Z,94.30
2023-03-30T08:30:36.793Z,99.90
2023-03-30T08:40:35.890Z,99.90
2023-03-30T08:50:34.697Z,99.90
2023-03-30T09:00:33.915Z,99.90
2023-03-30T09:10:32.885Z,99.90
2023-03-30T09:20:31.808Z,99.90
2023-03-30T09:30:31.148Z,99.90
2023-03-30T09:40:29.702Z,99.40
2023-03-30T09:50:28.946Z,99.90
2023-03-30T10:00:27.880Z,99.90
2023-03-30T10:10:26.844Z,99.90
2023-03-30T10:20:26.395Z,99.90
2023-03-30T10:30:27.622Z,99.90
2023-03-30T10:40:27.067Z,99.90
2023-03-30T10:50:26.571Z,99.90
2023-03-30T11:00:25.757Z,99.90
2023-03-30T11:10:26.639Z,98.40
2023-03-30T11:20:27.302Z,97.70
2023-03-30T11:30:26.250Z,96.40
2023-03-30T11:40:26.891Z,93.00
2023-03-30T11:50:29.683Z,92.60
2023-03-30T12:00:28.846Z,88.70
2023-03-30T12:10:29.907Z,86.40
2023-03-30T12:20:28.938Z,84.30
2023-03-30T12:30:27.855Z,86.80
2023-03-30T12:40:26.758Z,93.60
2023-03-30T12:50:25.821Z,96.20
2023-03-30T13:00:24.953Z,96.50
2023-03-30T13:10:23.811Z,95.80
2023-03-30T13:30:23.792Z,89.80
2023-03-30T13:40:37.946Z,86.90
2023-03-30T13:50:26.112Z,85.20
2023-03-30T14:00:24.808Z,85.90
2023-03-30T14:10:23.830Z,86.30
2023-03-30T14:20:22.864Z,86.20
2023-03-30T14:30:21.810Z,84.50
2023-03-30T14:40:21.651Z,83.90
2023-03-30T14:50:21.630Z,86.80
2023-03-30T15:00:21.944Z,91.20
2023-03-30T15:10:21.132Z,91.50
2023-03-30T15:20:20.031Z,91.70
2023-03-30T15:30:19.083Z,90.20
2023-03-30T15:40:17.893Z,84.20
2023-03-30T15:50:17.152Z,83.80
2023-03-30T16:00:18.120Z,90.80
2023-03-30T16:10:17.246Z,92.40
2023-03-30T16:20:16.270Z,92.30
2023-03-30T16:30:14.994Z,92.40
2023-03-30T16:40:14.030Z,92.60
2023-03-30T16:50:13.061Z,92.80
2023-03-30T17:00:12.148Z,93.50
2023-03-30T17:10:11.186Z,94.10
2023-03-30T17:20:10.933Z,94.70
2023-03-30T17:30:10.459Z,95.20
2023-03-30T17:40:10.083Z,95.50
2023-03-30T17:50:09.191Z,94.50
2023-03-30T18:01:17.082Z,94.30
2023-03-30T18:11:16.111Z,94.00
2023-03-30T18:21:15.156Z,93.90
2023-03-30T18:31:14.007Z,93.90
2023-03-30T18:41:13.287Z,94.00
2023-03-30T18:51:12.160Z,94.10
2023-03-30T19:01:12.801Z,94.00
2023-03-30T19:11:12.287Z,94.20
2023-03-30T19:21:11.101Z,94.40
2023-03-30T19:31:11.984Z,94.80
2023-03-30T19:41:11.014Z,95.10
2023-03-30T19:51:10.401Z,95.00
2023-03-30T20:01:09.936Z,95.50
2023-03-30T20:11:09.158Z,95.50
2023-03-30T20:21:08.334Z,95.50
2023-03-30T20:31:07.442Z,95.50
2023-03-30T20:41:06.748Z,95.30
2023-03-30T20:51:09.125Z,95.50
2023-03-30T21:01:08.951Z,95.80
2023-03-30T21:11:08.223Z,95.80
2023-03-30T21:21:07.203Z,95.90
2023-03-30T21:31:07.117Z,96.20
2023-03-30T21:41:07.042Z,96.50
2023-03-30T21:51:06.166Z,96.50
2023-03-30T22:01:11.718Z,96.80
2023-03-30T22:11:06.175Z,97.20
2023-03-30T22:21:05.281Z,97.20
2023-03-30T22:31:04.381Z,97.40
2023-03-30T22:41:07.039Z,97.50
2023-03-30T22:51:04.280Z,97.50
2023-03-30T23:01:06.441Z,97.70
2023-03-30T23:11:05.986Z,97.70
2023-03-30T23:21:06.034Z,97.70
2023-03-30T23:31:05.291Z,97.50
2023-03-30T23:41:04.297Z,97.50
2023-03-30T23:51:03.362Z,97.50
